Piatra Neamt, Romania
Current Conditions -  °F | °C
As of 8:00 PM on Wednesday 28 Jan 2015 (Local Time) from LRBC Reporting Station
Haze Haze  
Wind Chill: 36°   Ceiling: 1100
Heat Index: 36°   Visibility: 2.8mi
Dew Point: 34°   Wind: 0mph
Humidity: 93%   Direction: NA
Pressure: 29.91"   Gusts: NA
Location:  46.92°N, 26.33°E
Report Text: LRBC 281800Z 00000KT 4600 BR BKN011 02/01 Q1013 R16/210295
Loading
Personal Weather Stations






























Interactive Weather Map New forecast layout! Learn more

10-Day Weather Forecast

Advertisements
Track Severe Weather on mobile